sensor_id;sensor_type;location;lat;lon;timestamp;P1;durP1;ratioP1;P2;durP2;ratioP2
12120;SDS011;6124;59.460;17.908;2023-02-27T00:01:46;4.77;;;2.00;;
12120;SDS011;6124;59.460;17.908;2023-02-27T00:04:13;3.80;;;1.87;;
12120;SDS011;6124;59.460;17.908;2023-02-27T00:06:41;4.27;;;1.93;;
12120;SDS011;6124;59.460;17.908;2023-02-27T00:09:08;3.73;;;2.20;;
12120;SDS011;6124;59.460;17.908;2023-02-27T00:11:36;3.57;;;1.77;;
12120;SDS011;6124;59.460;17.908;2023-02-27T00:14:04;3.97;;;2.10;;
12120;SDS011;6124;59.460;17.908;2023-02-27T00:16:31;4.13;;;1.80;;
12120;SDS011;6124;59.460;17.908;2023-02-27T00:19:00;5.37;;;2.20;;
12120;SDS011;6124;59.460;17.908;2023-02-27T00:21:29;4.20;;;2.00;;
12120;SDS011;6124;59.460;17.908;2023-02-27T00:23:56;4.10;;;2.03;;
12120;SDS011;6124;59.460;17.908;2023-02-27T00:26:24;4.00;;;1.97;;
12120;SDS011;6124;59.460;17.908;2023-02-27T00:28:52;4.23;;;1.90;;
12120;SDS011;6124;59.460;17.908;2023-02-27T00:31:19;6.83;;;2.20;;
12120;SDS011;6124;59.460;17.908;2023-02-27T00:33:46;3.77;;;1.80;;
12120;SDS011;6124;59.460;17.908;2023-02-27T00:36:15;3.17;;;2.00;;
12120;SDS011;6124;59.460;17.908;2023-02-27T00:38:43;4.53;;;2.10;;
12120;SDS011;6124;59.460;17.908;2023-02-27T00:41:10;3.67;;;1.90;;
12120;SDS011;6124;59.460;17.908;2023-02-27T00:43:37;4.53;;;2.37;;
12120;SDS011;6124;59.460;17.908;2023-02-27T00:46:05;3.23;;;1.83;;
12120;SDS011;6124;59.460;17.908;2023-02-27T00:48:33;3.77;;;1.90;;
12120;SDS011;6124;59.460;17.908;2023-02-27T00:51:00;5.77;;;2.07;;
12120;SDS011;6124;59.460;17.908;2023-02-27T00:53:29;3.40;;;1.97;;
12120;SDS011;6124;59.460;17.908;2023-02-27T00:55:56;3.20;;;2.00;;
12120;SDS011;6124;59.460;17.908;2023-02-27T00:58:24;2.73;;;2.00;;
12120;SDS011;6124;59.460;17.908;2023-02-27T01:00:51;5.47;;;2.50;;
12120;SDS011;6124;59.460;17.908;2023-02-27T01:03:18;3.73;;;2.13;;
12120;SDS011;6124;59.460;17.908;2023-02-27T01:05:46;3.43;;;2.00;;
12120;SDS011;6124;59.460;17.908;2023-02-27T01:08:13;5.77;;;2.17;;
12120;SDS011;6124;59.460;17.908;2023-02-27T01:10:42;4.90;;;2.57;;
12120;SDS011;6124;59.460;17.908;2023-02-27T01:13:09;4.07;;;2.20;;
12120;SDS011;6124;59.460;17.908;2023-02-27T01:15:37;5.07;;;2.30;;
12120;SDS011;6124;59.460;17.908;2023-02-27T01:18:04;4.80;;;2.50;;
12120;SDS011;6124;59.460;17.908;2023-02-27T01:20:32;3.80;;;2.30;;
12120;SDS011;6124;59.460;17.908;2023-02-27T01:22:59;5.33;;;1.97;;
12120;SDS011;6124;59.460;17.908;2023-02-27T01:25:26;4.40;;;2.60;;
12120;SDS011;6124;59.460;17.908;2023-02-27T01:27:55;5.20;;;2.30;;
12120;SDS011;6124;59.460;17.908;2023-02-27T01:30:22;3.93;;;2.40;;
12120;SDS011;6124;59.460;17.908;2023-02-27T01:32:49;3.53;;;2.20;;
12120;SDS011;6124;59.460;17.908;2023-02-27T01:35:17;4.20;;;2.07;;
12120;SDS011;6124;59.460;17.908;2023-02-27T01:37:44;3.27;;;2.10;;
12120;SDS011;6124;59.460;17.908;2023-02-27T01:40:12;4.43;;;2.30;;
12120;SDS011;6124;59.460;17.908;2023-02-27T01:42:40;3.80;;;2.10;;
12120;SDS011;6124;59.460;17.908;2023-02-27T01:45:25;5.70;;;2.47;;
12120;SDS011;6124;59.460;17.908;2023-02-27T01:47:53;3.50;;;1.80;;
12120;SDS011;6124;59.460;17.908;2023-02-27T01:50:23;6.63;;;2.40;;
12120;SDS011;6124;59.460;17.908;2023-02-27T01:52:51;5.83;;;2.30;;
12120;SDS011;6124;59.460;17.908;2023-02-27T01:55:20;5.47;;;2.27;;
12120;SDS011;6124;59.460;17.908;2023-02-27T01:57:47;3.40;;;2.23;;
12120;SDS011;6124;59.460;17.908;2023-02-27T02:00:16;3.67;;;2.30;;
12120;SDS011;6124;59.460;17.908;2023-02-27T02:02:46;3.67;;;2.23;;
12120;SDS011;6124;59.460;17.908;2023-02-27T02:05:15;5.40;;;2.30;;
12120;SDS011;6124;59.460;17.908;2023-02-27T02:07:42;4.93;;;2.47;;
12120;SDS011;6124;59.460;17.908;2023-02-27T02:10:11;4.37;;;2.67;;
12120;SDS011;6124;59.460;17.908;2023-02-27T02:12:40;4.73;;;2.30;;
12120;SDS011;6124;59.460;17.908;2023-02-27T02:15:08;6.10;;;2.47;;
12120;SDS011;6124;59.460;17.908;2023-02-27T02:17:37;7.03;;;2.30;;
12120;SDS011;6124;59.460;17.908;2023-02-27T02:25:51;6.33;;;2.67;;
12120;SDS011;6124;59.460;17.908;2023-02-27T02:28:28;6.70;;;2.30;;
12120;SDS011;6124;59.460;17.908;2023-02-27T02:31:13;5.17;;;2.20;;
12120;SDS011;6124;59.460;17.908;2023-02-27T02:33:58;4.87;;;2.70;;
12120;SDS011;6124;59.460;17.908;2023-02-27T02:42:02;4.97;;;2.23;;
12120;SDS011;6124;59.460;17.908;2023-02-27T02:44:34;5.20;;;2.30;;
12120;SDS011;6124;59.460;17.908;2023-02-27T02:47:03;3.93;;;1.77;;
12120;SDS011;6124;59.460;17.908;2023-02-27T02:49:33;3.33;;;1.90;;
12120;SDS011;6124;59.460;17.908;2023-02-27T02:52:05;3.63;;;1.67;;
12120;SDS011;6124;59.460;17.908;2023-02-27T02:54:36;4.63;;;2.30;;
12120;SDS011;6124;59.460;17.908;2023-02-27T02:57:07;4.63;;;2.00;;
12120;SDS011;6124;59.460;17.908;2023-02-27T02:59:37;4.60;;;2.00;;
12120;SDS011;6124;59.460;17.908;2023-02-27T03:02:07;4.27;;;1.90;;
12120;SDS011;6124;59.460;17.908;2023-02-27T03:04:37;6.43;;;2.07;;
12120;SDS011;6124;59.460;17.908;2023-02-27T03:07:19;3.27;;;1.67;;
12120;SDS011;6124;59.460;17.908;2023-02-27T03:09:49;6.20;;;2.10;;
12120;SDS011;6124;59.460;17.908;2023-02-27T03:12:20;5.80;;;1.80;;
12120;SDS011;6124;59.460;17.908;2023-02-27T03:14:49;7.13;;;1.90;;
12120;SDS011;6124;59.460;17.908;2023-02-27T03:17:21;3.83;;;1.80;;
12120;SDS011;6124;59.460;17.908;2023-02-27T03:19:51;3.93;;;1.87;;
12120;SDS011;6124;59.460;17.908;2023-02-27T03:22:21;6.07;;;1.97;;
12120;SDS011;6124;59.460;17.908;2023-02-27T03:24:50;5.67;;;2.10;;
12120;SDS011;6124;59.460;17.908;2023-02-27T03:27:20;3.30;;;2.17;;
12120;SDS011;6124;59.460;17.908;2023-02-27T03:29:49;2.77;;;1.90;;
12120;SDS011;6124;59.460;17.908;2023-02-27T03:32:20;6.87;;;2.30;;
12120;SDS011;6124;59.460;17.908;2023-02-27T03:34:49;5.57;;;1.90;;
12120;SDS011;6124;59.460;17.908;2023-02-27T03:37:19;4.90;;;1.93;;
12120;SDS011;6124;59.460;17.908;2023-02-27T03:39:49;3.93;;;1.70;;
12120;SDS011;6124;59.460;17.908;2023-02-27T03:42:23;4.27;;;1.97;;
12120;SDS011;6124;59.460;17.908;2023-02-27T03:44:53;4.83;;;2.00;;
12120;SDS011;6124;59.460;17.908;2023-02-27T03:47:21;4.37;;;1.90;;
12120;SDS011;6124;59.460;17.908;2023-02-27T03:49:48;5.63;;;2.23;;
12120;SDS011;6124;59.460;17.908;2023-02-27T03:52:16;3.83;;;1.90;;
12120;SDS011;6124;59.460;17.908;2023-02-27T03:54:45;7.87;;;2.00;;
12120;SDS011;6124;59.460;17.908;2023-02-27T03:57:15;3.83;;;1.77;;
12120;SDS011;6124;59.460;17.908;2023-02-27T03:59:44;5.13;;;1.97;;
12120;SDS011;6124;59.460;17.908;2023-02-27T04:02:11;4.73;;;2.00;;
12120;SDS011;6124;59.460;17.908;2023-02-27T04:04:39;4.77;;;1.93;;
12120;SDS011;6124;59.460;17.908;2023-02-27T04:07:08;3.27;;;1.70;;
12120;SDS011;6124;59.460;17.908;2023-02-27T04:10:02;4.10;;;1.90;;
12120;SDS011;6124;59.460;17.908;2023-02-27T04:12:35;2.63;;;1.70;;
12120;SDS011;6124;59.460;17.908;2023-02-27T04:15:10;3.40;;;1.77;;
12120;SDS011;6124;59.460;17.908;2023-02-27T04:17:42;5.50;;;1.97;;
12120;SDS011;6124;59.460;17.908;2023-02-27T04:20:25;5.10;;;1.93;;
12120;SDS011;6124;59.460;17.908;2023-02-27T04:22:54;4.27;;;2.03;;
12120;SDS011;6124;59.460;17.908;2023-02-27T04:25:31;5.83;;;2.33;;
12120;SDS011;6124;59.460;17.908;2023-02-27T04:28:05;2.50;;;1.80;;
12120;SDS011;6124;59.460;17.908;2023-02-27T04:30:36;4.43;;;2.00;;
12120;SDS011;6124;59.460;17.908;2023-02-27T04:33:09;5.83;;;1.83;;
12120;SDS011;6124;59.460;17.908;2023-02-27T04:35:40;5.37;;;1.70;;
12120;SDS011;6124;59.460;17.908;2023-02-27T04:38:11;4.53;;;2.07;;
12120;SDS011;6124;59.460;17.908;2023-02-27T04:40:43;5.03;;;2.27;;
12120;SDS011;6124;59.460;17.908;2023-02-27T04:43:12;7.57;;;2.47;;
12120;SDS011;6124;59.460;17.908;2023-02-27T04:45:42;3.83;;;1.70;;
12120;SDS011;6124;59.460;17.908;2023-02-27T04:48:12;2.87;;;1.97;;
12120;SDS011;6124;59.460;17.908;2023-02-27T04:50:42;4.57;;;1.77;;
12120;SDS011;6124;59.460;17.908;2023-02-27T04:53:12;6.87;;;2.20;;
12120;SDS011;6124;59.460;17.908;2023-02-27T04:55:42;3.57;;;1.60;;
12120;SDS011;6124;59.460;17.908;2023-02-27T04:58:11;4.20;;;2.03;;
12120;SDS011;6124;59.460;17.908;2023-02-27T05:00:40;4.63;;;1.80;;
12120;SDS011;6124;59.460;17.908;2023-02-27T05:03:12;5.27;;;2.03;;
12120;SDS011;6124;59.460;17.908;2023-02-27T05:05:41;3.67;;;2.00;;
12120;SDS011;6124;59.460;17.908;2023-02-27T05:08:11;2.77;;;1.43;;
12120;SDS011;6124;59.460;17.908;2023-02-27T05:10:41;4.10;;;2.00;;
12120;SDS011;6124;59.460;17.908;2023-02-27T05:13:12;3.83;;;1.87;;
12120;SDS011;6124;59.460;17.908;2023-02-27T05:15:42;3.67;;;1.87;;
12120;SDS011;6124;59.460;17.908;2023-02-27T05:18:13;4.30;;;2.07;;
12120;SDS011;6124;59.460;17.908;2023-02-27T05:20:50;3.63;;;1.63;;
12120;SDS011;6124;59.460;17.908;2023-02-27T05:23:20;2.47;;;1.53;;
12120;SDS011;6124;59.460;17.908;2023-02-27T05:25:50;2.83;;;1.50;;
12120;SDS011;6124;59.460;17.908;2023-02-27T05:28:20;4.77;;;2.17;;
12120;SDS011;6124;59.460;17.908;2023-02-27T05:30:51;4.07;;;1.90;;
12120;SDS011;6124;59.460;17.908;2023-02-27T05:33:23;3.87;;;1.70;;
12120;SDS011;6124;59.460;17.908;2023-02-27T05:35:53;3.00;;;1.67;;
12120;SDS011;6124;59.460;17.908;2023-02-27T05:38:24;2.97;;;1.70;;
12120;SDS011;6124;59.460;17.908;2023-02-27T05:40:54;3.90;;;1.90;;
12120;SDS011;6124;59.460;17.908;2023-02-27T05:43:24;4.30;;;1.60;;
12120;SDS011;6124;59.460;17.908;2023-02-27T05:45:54;3.10;;;1.70;;
12120;SDS011;6124;59.460;17.908;2023-02-27T05:48:24;3.70;;;2.00;;
12120;SDS011;6124;59.460;17.908;2023-02-27T05:50:53;4.10;;;1.77;;
12120;SDS011;6124;59.460;17.908;2023-02-27T05:53:22;3.53;;;1.97;;
12120;SDS011;6124;59.460;17.908;2023-02-27T05:55:51;6.30;;;2.87;;
12120;SDS011;6124;59.460;17.908;2023-02-27T05:58:20;4.80;;;2.00;;
12120;SDS011;6124;59.460;17.908;2023-02-27T06:00:50;3.43;;;1.93;;
12120;SDS011;6124;59.460;17.908;2023-02-27T06:03:19;4.23;;;2.07;;
12120;SDS011;6124;59.460;17.908;2023-02-27T06:05:49;5.20;;;2.10;;
12120;SDS011;6124;59.460;17.908;2023-02-27T06:08:18;4.80;;;1.73;;
12120;SDS011;6124;59.460;17.908;2023-02-27T06:10:46;4.27;;;2.13;;
12120;SDS011;6124;59.460;17.908;2023-02-27T06:13:14;6.47;;;2.33;;
12120;SDS011;6124;59.460;17.908;2023-02-27T06:15:42;6.90;;;2.10;;
12120;SDS011;6124;59.460;17.908;2023-02-27T06:18:09;2.33;;;1.90;;
12120;SDS011;6124;59.460;17.908;2023-02-27T06:20:37;3.93;;;1.73;;
12120;SDS011;6124;59.460;17.908;2023-02-27T06:23:06;5.63;;;1.67;;
12120;SDS011;6124;59.460;17.908;2023-02-27T06:25:33;2.27;;;1.60;;
12120;SDS011;6124;59.460;17.908;2023-02-27T06:28:01;3.73;;;1.63;;
12120;SDS011;6124;59.460;17.908;2023-02-27T06:30:28;2.67;;;1.60;;
12120;SDS011;6124;59.460;17.908;2023-02-27T06:32:56;2.63;;;1.70;;
12120;SDS011;6124;59.460;17.908;2023-02-27T06:35:25;2.33;;;1.53;;
12120;SDS011;6124;59.460;17.908;2023-02-27T06:37:53;3.63;;;1.83;;
12120;SDS011;6124;59.460;17.908;2023-02-27T06:40:22;4.20;;;1.90;;
12120;SDS011;6124;59.460;17.908;2023-02-27T06:42:49;2.87;;;1.47;;
12120;SDS011;6124;59.460;17.908;2023-02-27T06:45:17;3.77;;;1.70;;
12120;SDS011;6124;59.460;17.908;2023-02-27T06:47:44;4.40;;;1.97;;
12120;SDS011;6124;59.460;17.908;2023-02-27T06:50:12;2.90;;;1.50;;
12120;SDS011;6124;59.460;17.908;2023-02-27T06:52:39;3.53;;;1.60;;
12120;SDS011;6124;59.460;17.908;2023-02-27T06:55:07;2.43;;;1.47;;
12120;SDS011;6124;59.460;17.908;2023-02-27T06:57:36;2.30;;;1.60;;
12120;SDS011;6124;59.460;17.908;2023-02-27T07:00:04;3.20;;;1.90;;
12120;SDS011;6124;59.460;17.908;2023-02-27T07:02:34;2.97;;;1.47;;
12120;SDS011;6124;59.460;17.908;2023-02-27T07:05:01;3.13;;;1.73;;
12120;SDS011;6124;59.460;17.908;2023-02-27T07:07:28;3.33;;;1.60;;
12120;SDS011;6124;59.460;17.908;2023-02-27T07:09:56;4.63;;;1.80;;
12120;SDS011;6124;59.460;17.908;2023-02-27T07:12:23;2.67;;;1.77;;
12120;SDS011;6124;59.460;17.908;2023-02-27T07:14:52;3.33;;;1.83;;
12120;SDS011;6124;59.460;17.908;2023-02-27T07:17:19;3.37;;;1.90;;
12120;SDS011;6124;59.460;17.908;2023-02-27T07:19:47;2.67;;;1.50;;
12120;SDS011;6124;59.460;17.908;2023-02-27T07:22:14;3.83;;;1.70;;
12120;SDS011;6124;59.460;17.908;2023-02-27T07:24:41;1.80;;;1.40;;
12120;SDS011;6124;59.460;17.908;2023-02-27T07:27:09;2.80;;;1.70;;
12120;SDS011;6124;59.460;17.908;2023-02-27T07:29:37;3.30;;;1.87;;
12120;SDS011;6124;59.460;17.908;2023-02-27T07:32:05;2.73;;;1.70;;
12120;SDS011;6124;59.460;17.908;2023-02-27T07:34:33;2.60;;;1.77;;
12120;SDS011;6124;59.460;17.908;2023-02-27T07:37:00;2.30;;;1.57;;
12120;SDS011;6124;59.460;17.908;2023-02-27T07:39:27;3.50;;;1.90;;
12120;SDS011;6124;59.460;17.908;2023-02-27T07:41:55;2.70;;;1.63;;
12120;SDS011;6124;59.460;17.908;2023-02-27T07:44:22;3.10;;;2.10;;
12120;SDS011;6124;59.460;17.908;2023-02-27T07:46:49;2.53;;;1.40;;
12120;SDS011;6124;59.460;17.908;2023-02-27T07:49:18;2.97;;;1.80;;
12120;SDS011;6124;59.460;17.908;2023-02-27T07:51:45;2.13;;;1.67;;
12120;SDS011;6124;59.460;17.908;2023-02-27T07:54:13;1.60;;;1.40;;
12120;SDS011;6124;59.460;17.908;2023-02-27T07:56:40;2.40;;;1.30;;
12120;SDS011;6124;59.460;17.908;2023-02-27T07:59:07;2.13;;;1.30;;
12120;SDS011;6124;59.460;17.908;2023-02-27T08:01:35;1.77;;;1.30;;
12120;SDS011;6124;59.460;17.908;2023-02-27T08:04:02;2.23;;;1.20;;
12120;SDS011;6124;59.460;17.908;2023-02-27T08:06:31;1.43;;;1.13;;
12120;SDS011;6124;59.460;17.908;2023-02-27T08:08:58;2.10;;;1.20;;
12120;SDS011;6124;59.460;17.908;2023-02-27T08:11:26;1.10;;;1.00;;
12120;SDS011;6124;59.460;17.908;2023-02-27T08:13:53;1.60;;;1.20;;
12120;SDS011;6124;59.460;17.908;2023-02-27T08:16:20;1.30;;;1.13;;
12120;SDS011;6124;59.460;17.908;2023-02-27T08:18:47;2.23;;;1.20;;
12120;SDS011;6124;59.460;17.908;2023-02-27T08:21:15;1.30;;;0.90;;
12120;SDS011;6124;59.460;17.908;2023-02-27T08:23:44;1.97;;;1.30;;
12120;SDS011;6124;59.460;17.908;2023-02-27T08:26:11;1.43;;;1.03;;
12120;SDS011;6124;59.460;17.908;2023-02-27T08:28:38;2.10;;;1.20;;
12120;SDS011;6124;59.460;17.908;2023-02-27T08:31:06;2.97;;;0.97;;
12120;SDS011;6124;59.460;17.908;2023-02-27T08:33:33;2.23;;;1.17;;
12120;SDS011;6124;59.460;17.908;2023-02-27T08:36:01;1.00;;;0.90;;
12120;SDS011;6124;59.460;17.908;2023-02-27T08:38:28;1.87;;;0.90;;
12120;SDS011;6124;59.460;17.908;2023-02-27T08:40:57;1.07;;;0.97;;
12120;SDS011;6124;59.460;17.908;2023-02-27T08:43:24;1.43;;;0.90;;
12120;SDS011;6124;59.460;17.908;2023-02-27T08:45:51;0.97;;;0.87;;
12120;SDS011;6124;59.460;17.908;2023-02-27T08:48:19;1.17;;;1.00;;
12120;SDS011;6124;59.460;17.908;2023-02-27T08:50:48;1.30;;;1.00;;
12120;SDS011;6124;59.460;17.908;2023-02-27T08:53:15;1.03;;;0.93;;
12120;SDS011;6124;59.460;17.908;2023-02-27T08:55:43;0.70;;;0.70;;
12120;SDS011;6124;59.460;17.908;2023-02-27T08:58:11;1.63;;;1.13;;
12120;SDS011;6124;59.460;17.908;2023-02-27T09:00:39;2.53;;;1.40;;
12120;SDS011;6124;59.460;17.908;2023-02-27T09:03:06;2.97;;;1.00;;
12120;SDS011;6124;59.460;17.908;2023-02-27T09:05:34;1.70;;;1.07;;
12120;SDS011;6124;59.460;17.908;2023-02-27T09:08:01;1.87;;;1.27;;
12120;SDS011;6124;59.460;17.908;2023-02-27T09:10:29;1.33;;;0.90;;
12120;SDS011;6124;59.460;17.908;2023-02-27T09:12:57;0.80;;;0.80;;
12120;SDS011;6124;59.460;17.908;2023-02-27T09:15:25;1.00;;;0.90;;
12120;SDS011;6124;59.460;17.908;2023-02-27T09:17:54;1.83;;;0.77;;
12120;SDS011;6124;59.460;17.908;2023-02-27T09:20:26;0.80;;;0.70;;
12120;SDS011;6124;59.460;17.908;2023-02-27T09:22:53;0.60;;;0.60;;
12120;SDS011;6124;59.460;17.908;2023-02-27T09:25:21;1.30;;;0.70;;
12120;SDS011;6124;59.460;17.908;2023-02-27T09:27:49;0.90;;;0.80;;
12120;SDS011;6124;59.460;17.908;2023-02-27T09:30:16;1.23;;;0.90;;
12120;SDS011;6124;59.460;17.908;2023-02-27T09:32:45;2.03;;;0.93;;
12120;SDS011;6124;59.460;17.908;2023-02-27T09:35:12;1.20;;;0.70;;
12120;SDS011;6124;59.460;17.908;2023-02-27T09:37:40;1.10;;;0.77;;
12120;SDS011;6124;59.460;17.908;2023-02-27T09:40:10;0.80;;;0.50;;
12120;SDS011;6124;59.460;17.908;2023-02-27T09:42:39;0.83;;;0.50;;
12120;SDS011;6124;59.460;17.908;2023-02-27T09:45:11;1.47;;;0.80;;
12120;SDS011;6124;59.460;17.908;2023-02-27T09:47:43;1.80;;;0.90;;
12120;SDS011;6124;59.460;17.908;2023-02-27T09:50:19;1.30;;;0.80;;
12120;SDS011;6124;59.460;17.908;2023-02-27T09:52:48;1.37;;;1.00;;
12120;SDS011;6124;59.460;17.908;2023-02-27T09:55:16;1.20;;;0.83;;
12120;SDS011;6124;59.460;17.908;2023-02-27T09:57:46;0.80;;;0.80;;
12120;SDS011;6124;59.460;17.908;2023-02-27T10:00:20;1.57;;;0.90;;
12120;SDS011;6124;59.460;17.908;2023-02-27T10:02:56;1.07;;;0.80;;
12120;SDS011;6124;59.460;17.908;2023-02-27T10:05:28;0.70;;;0.70;;
12120;SDS011;6124;59.460;17.908;2023-02-27T10:07:58;1.10;;;0.90;;
12120;SDS011;6124;59.460;17.908;2023-02-27T10:10:29;2.03;;;1.00;;
12120;SDS011;6124;59.460;17.908;2023-02-27T10:13:02;1.43;;;0.73;;
12120;SDS011;6124;59.460;17.908;2023-02-27T10:15:33;2.53;;;1.33;;
12120;SDS011;6124;59.460;17.908;2023-02-27T10:18:03;1.87;;;0.70;;
12120;SDS011;6124;59.460;17.908;2023-02-27T10:20:34;0.90;;;0.73;;
12120;SDS011;6124;59.460;17.908;2023-02-27T10:23:03;1.33;;;0.80;;
12120;SDS011;6124;59.460;17.908;2023-02-27T10:25:33;1.33;;;1.00;;
12120;SDS011;6124;59.460;17.908;2023-02-27T10:28:08;0.80;;;0.70;;
12120;SDS011;6124;59.460;17.908;2023-02-27T10:30:37;1.00;;;0.80;;
12120;SDS011;6124;59.460;17.908;2023-02-27T10:33:06;1.43;;;0.80;;
12120;SDS011;6124;59.460;17.908;2023-02-27T10:35:36;1.07;;;0.70;;
12120;SDS011;6124;59.460;17.908;2023-02-27T10:38:07;0.70;;;0.70;;
12120;SDS011;6124;59.460;17.908;2023-02-27T10:40:38;0.73;;;0.73;;
12120;SDS011;6124;59.460;17.908;2023-02-27T10:43:06;0.70;;;0.70;;
12120;SDS011;6124;59.460;17.908;2023-02-27T10:45:34;2.43;;;0.60;;
12120;SDS011;6124;59.460;17.908;2023-02-27T10:48:01;0.50;;;0.50;;
12120;SDS011;6124;59.460;17.908;2023-02-27T10:50:29;1.13;;;0.60;;
12120;SDS011;6124;59.460;17.908;2023-02-27T10:52:59;0.70;;;0.63;;
12120;SDS011;6124;59.460;17.908;2023-02-27T10:55:27;0.80;;;0.60;;
12120;SDS011;6124;59.460;17.908;2023-02-27T10:57:55;1.10;;;0.67;;
12120;SDS011;6124;59.460;17.908;2023-02-27T11:00:24;0.90;;;0.70;;
12120;SDS011;6124;59.460;17.908;2023-02-27T11:02:53;1.43;;;0.80;;
12120;SDS011;6124;59.460;17.908;2023-02-27T11:05:22;1.63;;;0.70;;
12120;SDS011;6124;59.460;17.908;2023-02-27T11:07:51;1.20;;;0.70;;
12120;SDS011;6124;59.460;17.908;2023-02-27T11:10:21;0.77;;;0.70;;
12120;SDS011;6124;59.460;17.908;2023-02-27T11:12:59;1.27;;;0.67;;
12120;SDS011;6124;59.460;17.908;2023-02-27T11:15:27;1.70;;;0.50;;
12120;SDS011;6124;59.460;17.908;2023-02-27T11:17:54;0.60;;;0.60;;
12120;SDS011;6124;59.460;17.908;2023-02-27T11:20:41;0.77;;;0.60;;
12120;SDS011;6124;59.460;17.908;2023-02-27T11:23:13;1.17;;;0.80;;
12120;SDS011;6124;59.460;17.908;2023-02-27T11:25:42;0.87;;;0.70;;
12120;SDS011;6124;59.460;17.908;2023-02-27T11:28:22;1.23;;;0.90;;
12120;SDS011;6124;59.460;17.908;2023-02-27T11:30:56;0.90;;;0.80;;
12120;SDS011;6124;59.460;17.908;2023-02-27T11:33:24;0.90;;;0.80;;
12120;SDS011;6124;59.460;17.908;2023-02-27T11:35:52;2.50;;;0.80;;
12120;SDS011;6124;59.460;17.908;2023-02-27T11:38:21;1.20;;;0.57;;
12120;SDS011;6124;59.460;17.908;2023-02-27T11:40:52;1.33;;;0.63;;
12120;SDS011;6124;59.460;17.908;2023-02-27T11:43:20;1.03;;;0.60;;
12120;SDS011;6124;59.460;17.908;2023-02-27T11:45:49;1.63;;;0.70;;
12120;SDS011;6124;59.460;17.908;2023-02-27T11:48:18;1.33;;;0.67;;
12120;SDS011;6124;59.460;17.908;2023-02-27T11:50:52;0.50;;;0.50;;
12120;SDS011;6124;59.460;17.908;2023-02-27T11:53:24;0.70;;;0.50;;
12120;SDS011;6124;59.460;17.908;2023-02-27T11:55:57;3.20;;;0.90;;
12120;SDS011;6124;59.460;17.908;2023-02-27T11:58:26;1.70;;;1.00;;
12120;SDS011;6124;59.460;17.908;2023-02-27T12:00:55;1.60;;;1.50;;
12120;SDS011;6124;59.460;17.908;2023-02-27T12:03:26;1.50;;;1.40;;
12120;SDS011;6124;59.460;17.908;2023-02-27T12:05:54;2.10;;;1.90;;
12120;SDS011;6124;59.460;17.908;2023-02-27T12:08:27;3.47;;;3.13;;
12120;SDS011;6124;59.460;17.908;2023-02-27T12:10:58;2.00;;;1.80;;
12120;SDS011;6124;59.460;17.908;2023-02-27T12:13:29;2.40;;;1.37;;
12120;SDS011;6124;59.460;17.908;2023-02-27T12:15:58;2.10;;;1.30;;
12120;SDS011;6124;59.460;17.908;2023-02-27T12:18:27;2.73;;;1.80;;
12120;SDS011;6124;59.460;17.908;2023-02-27T12:20:56;2.40;;;1.77;;
12120;SDS011;6124;59.460;17.908;2023-02-27T12:23:26;3.00;;;1.30;;
12120;SDS011;6124;59.460;17.908;2023-02-27T12:25:56;1.80;;;1.70;;
12120;SDS011;6124;59.460;17.908;2023-02-27T12:28:31;3.17;;;2.67;;
12120;SDS011;6124;59.460;17.908;2023-02-27T12:31:05;1.73;;;1.20;;
12120;SDS011;6124;59.460;17.908;2023-02-27T12:33:35;1.90;;;1.30;;
12120;SDS011;6124;59.460;17.908;2023-02-27T12:36:07;1.60;;;1.50;;
12120;SDS011;6124;59.460;17.908;2023-02-27T12:38:35;0.70;;;0.70;;
12120;SDS011;6124;59.460;17.908;2023-02-27T12:41:07;1.17;;;0.70;;
12120;SDS011;6124;59.460;17.908;2023-02-27T12:43:43;1.30;;;1.20;;
12120;SDS011;6124;59.460;17.908;2023-02-27T12:46:18;1.40;;;0.87;;
12120;SDS011;6124;59.460;17.908;2023-02-27T12:51:37;0.50;;;0.50;;
12120;SDS011;6124;59.460;17.908;2023-02-27T12:54:09;0.63;;;0.63;;
12120;SDS011;6124;59.460;17.908;2023-02-27T12:56:43;2.53;;;0.80;;
12120;SDS011;6124;59.460;17.908;2023-02-27T12:59:18;0.63;;;0.53;;
12120;SDS011;6124;59.460;17.908;2023-02-27T13:01:50;0.60;;;0.60;;
12120;SDS011;6124;59.460;17.908;2023-02-27T13:04:22;0.53;;;0.53;;
12120;SDS011;6124;59.460;17.908;2023-02-27T13:06:52;0.47;;;0.47;;
12120;SDS011;6124;59.460;17.908;2023-02-27T13:09:23;0.30;;;0.30;;
12120;SDS011;6124;59.460;17.908;2023-02-27T13:11:56;1.20;;;0.50;;
12120;SDS011;6124;59.460;17.908;2023-02-27T13:14:32;0.30;;;0.30;;
12120;SDS011;6124;59.460;17.908;2023-02-27T13:17:03;1.50;;;1.40;;
12120;SDS011;6124;59.460;17.908;2023-02-27T13:19:32;1.10;;;1.00;;
12120;SDS011;6124;59.460;17.908;2023-02-27T13:22:02;0.53;;;0.53;;
12120;SDS011;6124;59.460;17.908;2023-02-27T13:24:41;1.27;;;1.17;;
12120;SDS011;6124;59.460;17.908;2023-02-27T13:27:12;1.20;;;1.10;;
12120;SDS011;6124;59.460;17.908;2023-02-27T13:29:44;0.73;;;0.60;;
12120;SDS011;6124;59.460;17.908;2023-02-27T13:32:18;0.70;;;0.70;;
12120;SDS011;6124;59.460;17.908;2023-02-27T13:34:50;0.50;;;0.50;;
12120;SDS011;6124;59.460;17.908;2023-02-27T13:37:19;1.10;;;1.00;;
12120;SDS011;6124;59.460;17.908;2023-02-27T13:39:51;1.50;;;0.90;;
12120;SDS011;6124;59.460;17.908;2023-02-27T13:45:43;0.57;;;0.40;;
12120;SDS011;6124;59.460;17.908;2023-02-27T13:47:55;0.30;;;0.30;;
12120;SDS011;6124;59.460;17.908;2023-02-27T13:53:09;0.30;;;0.30;;
12120;SDS011;6124;59.460;17.908;2023-02-27T13:55:36;0.50;;;0.47;;
12120;SDS011;6124;59.460;17.908;2023-02-27T13:58:04;0.57;;;0.40;;
12120;SDS011;6124;59.460;17.908;2023-02-27T14:00:33;0.40;;;0.40;;
12120;SDS011;6124;59.460;17.908;2023-02-27T14:03:03;0.30;;;0.30;;
12120;SDS011;6124;59.460;17.908;2023-02-27T14:05:33;2.20;;;0.40;;
12120;SDS011;6124;59.460;17.908;2023-02-27T14:08:05;0.60;;;0.50;;
12120;SDS011;6124;59.460;17.908;2023-02-27T14:10:35;1.60;;;0.60;;
12120;SDS011;6124;59.460;17.908;2023-02-27T14:13:03;0.57;;;0.50;;
12120;SDS011;6124;59.460;17.908;2023-02-27T14:15:55;0.97;;;0.60;;
12120;SDS011;6124;59.460;17.908;2023-02-27T14:24:09;0.60;;;0.53;;
12120;SDS011;6124;59.460;17.908;2023-02-27T14:26:39;1.00;;;0.40;;
12120;SDS011;6124;59.460;17.908;2023-02-27T14:29:11;0.40;;;0.37;;
12120;SDS011;6124;59.460;17.908;2023-02-27T14:31:42;0.40;;;0.40;;
12120;SDS011;6124;59.460;17.908;2023-02-27T14:34:11;0.50;;;0.50;;
12120;SDS011;6124;59.460;17.908;2023-02-27T14:36:40;0.43;;;0.40;;
12120;SDS011;6124;59.460;17.908;2023-02-27T14:39:15;0.93;;;0.53;;
12120;SDS011;6124;59.460;17.908;2023-02-27T14:41:45;1.23;;;0.47;;
12120;SDS011;6124;59.460;17.908;2023-02-27T14:44:18;2.00;;;0.57;;
12120;SDS011;6124;59.460;17.908;2023-02-27T14:46:48;1.10;;;0.60;;
12120;SDS011;6124;59.460;17.908;2023-02-27T14:49:16;0.67;;;0.47;;
12120;SDS011;6124;59.460;17.908;2023-02-27T14:51:44;0.40;;;0.30;;
12120;SDS011;6124;59.460;17.908;2023-02-27T14:54:12;0.87;;;0.50;;
12120;SDS011;6124;59.460;17.908;2023-02-27T14:56:40;0.30;;;0.30;;
12120;SDS011;6124;59.460;17.908;2023-02-27T14:59:20;1.23;;;0.50;;
12120;SDS011;6124;59.460;17.908;2023-02-27T15:01:49;0.30;;;0.27;;
12120;SDS011;6124;59.460;17.908;2023-02-27T15:04:18;0.53;;;0.37;;
12120;SDS011;6124;59.460;17.908;2023-02-27T15:06:46;0.40;;;0.40;;
12120;SDS011;6124;59.460;17.908;2023-02-27T15:09:19;0.43;;;0.40;;
12120;SDS011;6124;59.460;17.908;2023-02-27T15:11:48;1.00;;;0.40;;
12120;SDS011;6124;59.460;17.908;2023-02-27T15:14:17;0.40;;;0.40;;
12120;SDS011;6124;59.460;17.908;2023-02-27T15:16:45;0.57;;;0.50;;
12120;SDS011;6124;59.460;17.908;2023-02-27T15:19:15;0.30;;;0.30;;
12120;SDS011;6124;59.460;17.908;2023-02-27T15:21:44;0.40;;;0.40;;
12120;SDS011;6124;59.460;17.908;2023-02-27T15:24:19;0.53;;;0.40;;
12120;SDS011;6124;59.460;17.908;2023-02-27T15:26:47;0.67;;;0.53;;
12120;SDS011;6124;59.460;17.908;2023-02-27T15:29:19;0.50;;;0.23;;